0F2

Bowie Municipal Airport

Bowie, Texas, USA
METAR K0F2 210935Z AUTO 00000KT 10SM CLR 23/16 A2992 RMK AO2 T02300157
Observed Flight Rules
Jul-21 @ 09:35 UTC (24 minutes ago) Visual Flight Rules
Visibility Clouds
10 miles
  • Clear skies
Temperatures Readings
Current 23°C / 73°F
Dewpoint 16°C / 61°F
Humidity 65%
Altimeter 29.92" Hg
Pressure 1013 hPa
Elevation 336
METAR K0F2 210935Z AUTO 00000KT 10SM CLR 23/16 A2992 RMK AO2 T02300157
Observed Flight Rules
Jul-21 @ 09:35 UTC
(24 minutes ago)
VFR
Clouds
  • Clear skies
Temperature Dewpoint
23°C / 73°F 16°C / 61°F
Humidity Altimeter Pressure
65% 29.92" Hg 1013 hPa